Pompano Beach, FL

10:29 PM EDT on October 22, 2014 (GMT -0400)
Cypress Lake Estates 908 Club | Change Station
CLOSE
Current Station
Personal Weather Station
Location: Pompano Beach, FL
Elevation: 10 ft
Nearby Weather Stations

Elev 10 ft 26.22 °N, 80.11 °W | Updated 4 seconds ago

Scattered Clouds
Scattered Clouds
79.1 °F
Feels Like 83 °F
N
0.0
Wind Variable Wind from WNW
Gusts 1.0 mph

Today
High -- | Low -- °F
--% Chance of Precip.
Yesterday
High -- | Low -- °F
Precip. -- in
7:23 AM 6:46 PM
Waning Crescent, 1% visible
Pressure 29.95 in
Visibility 10.0 miles
Clouds Scattered Clouds 2200 ft
Scattered Clouds 3900 ft
Heat Index 83 °F
Dew Point 75 °F
Humidity 87%
Rainfall 0.00 in
Snow Depth Not available.
UV 0 out of 12
Pollen 3.40 out of 12
Air Quality Not available.
Flu Activity Local Activity
METAR KPMP 230153Z 32003KT 10SM SCT022 SCT039 26/23 A2995 RMK AO2 SLP141 T02560228

More Conditions Fewer Conditions

Pressure 29.95 in
Visibility 10.0 miles
Clouds Scattered Clouds 2200 ft
Scattered Clouds 3900 ft
Heat Index 83 °F
Dew Point 75 °F
Humidity 87%
Rainfall 0.00 in
Snow Depth Not available.
UV 0 out of 12
Pollen 3.40 out of 12
Air Quality Not available.
Flu Activity Local Activity
METAR KPMP 230153Z 32003KT 10SM SCT022 SCT039 26/23 A2995 RMK AO2 SLP141 T02560228

More Conditions Fewer Conditions

Nowcast | as of 9:29 PM EDT on October 22, 2014

Scattered showers with locally heavy rainfall will develop along the southeast coast and affect mainly Metro and coastal areas of Miami-Dade, Broward and Palm Beach counties through the evening hours. An isolated thunderstorm is also possible. Scattered showers and isolated thunderstorms will continue over the Atlantic.

×

10-Day Weather Forecast

Almanac

Astronomy

Oct. 22, 2014 Rise Set
Actual Time 7:23 AM EDT 6:46 PM EDT
Civil Twilight 6:59 AM EDT 7:09 PM EDT
Nautical Twilight 6:32 AM EDT 7:36 PM EDT
Astronomical Twilight 6:05 AM EDT 8:03 PM EDT
Moon 6:10 AM EDT (10/22) 6:06 PM EDT (10/22)
Length of Visible Light 12h 09m
Length of Day
11h 22m
Tomorrow will be 1m 27s shorter.
Waning Crescent, 1% of the Moon is Illuminated
Today
Waning Crescent
Oct 23
New
Oct 30
First Quarter
Nov 6
Full
Nov 14
Last Quarter

Today's Extremes

State Highs State Lows

Community

WunderPhotos

Upload Photos

1,764,109 photos uploaded!

Nearby

Air Quality

  Air Quality AQ Index Pollutant
Yesterday Good
OZONE
Wednesday Good
OZONE
Wednesday Good
PM2.5
Thursday Good
OZONE
Thursday Good
PM2.5
Friday Good
OZONE
Friday Good
PM2.5
Saturday Good
OZONE
Saturday Good
PM2.5
Sunday Good
OZONE
Sunday Good
PM2.5

Snow Depth

Station Depth Elevation
No new snow has been reported.

Earthquake Activity

City Distance Mag. Time & Date
No recent earthquake activity has been reported nearby.
Minimum magnitude displayed is 2.5.

Coastal Water Temperatures

Place Temperature
Virginia Key, FL 81.0 °F

Nearby Weather Stations